createdAt,value
2018-02-16T00:00:06.848Z,30.73
2018-02-16T00:02:34.306Z,31.00
2018-02-16T00:05:01.763Z,31.73
2018-02-16T00:07:29.214Z,33.60
2018-02-16T00:09:56.709Z,27.83
2018-02-16T00:12:24.129Z,28.73
2018-02-16T00:14:52.359Z,27.67
2018-02-16T00:17:19.823Z,29.70
2018-02-16T00:19:47.485Z,27.43
2018-02-16T00:22:14.939Z,28.53
2018-02-16T00:24:42.398Z,28.63
2018-02-16T00:27:09.831Z,27.63
2018-02-16T00:29:37.295Z,25.50
2018-02-16T00:32:04.750Z,26.40
2018-02-16T00:34:32.199Z,25.33
2018-02-16T00:36:59.655Z,26.43
2018-02-16T00:39:27.141Z,24.57
2018-02-16T00:41:54.582Z,21.87
2018-02-16T00:44:22.059Z,21.40
2018-02-16T00:46:49.498Z,22.40
2018-02-16T00:49:16.973Z,22.30
2018-02-16T00:51:44.413Z,20.13
2018-02-16T00:54:11.870Z,20.47
2018-02-16T00:56:39.319Z,18.13
2018-02-16T00:59:06.815Z,18.17
2018-02-16T01:01:34.267Z,18.53
2018-02-16T01:04:01.713Z,17.77
2018-02-16T01:06:29.181Z,18.00
2018-02-16T01:08:56.623Z,18.43
2018-02-16T01:11:24.124Z,17.30
2018-02-16T01:13:51.619Z,16.50
2018-02-16T01:16:19.074Z,16.90
2018-02-16T01:18:46.531Z,16.63
2018-02-16T01:21:13.998Z,16.13
2018-02-16T01:23:41.445Z,15.27
2018-02-16T01:26:08.902Z,16.00
2018-02-16T01:28:36.374Z,15.60
2018-02-16T01:31:03.822Z,17.10
2018-02-16T01:33:32.414Z,15.23
2018-02-16T01:35:59.910Z,16.57
2018-02-16T01:38:27.382Z,17.13
2018-02-16T01:40:55.606Z,17.80
2018-02-16T01:43:23.054Z,18.73
2018-02-16T01:45:50.522Z,18.47
2018-02-16T01:48:17.956Z,18.10
2018-02-16T01:50:45.414Z,18.13
2018-02-16T01:53:12.914Z,18.63
2018-02-16T01:55:40.349Z,18.30
2018-02-16T01:58:07.810Z,17.50
2018-02-16T02:00:35.250Z,18.90
2018-02-16T02:03:02.731Z,19.23
2018-02-16T02:05:30.171Z,20.17
2018-02-16T02:07:57.638Z,23.47
2018-02-16T02:10:25.087Z,24.53
2018-02-16T02:12:52.539Z,25.17
2018-02-16T02:15:19.997Z,24.90
2018-02-16T02:17:47.454Z,24.33
2018-02-16T02:20:14.942Z,23.60
2018-02-16T02:22:42.399Z,21.40
2018-02-16T02:25:09.843Z,22.23
2018-02-16T02:27:37.307Z,23.50
2018-02-16T02:30:04.750Z,24.27
2018-02-16T02:32:32.215Z,24.30
2018-02-16T02:34:59.655Z,24.63
2018-02-16T02:37:27.112Z,23.60
2018-02-16T02:39:54.590Z,23.83
2018-02-16T02:42:22.054Z,22.07
2018-02-16T02:44:49.504Z,24.57
2018-02-16T02:47:16.966Z,23.63
2018-02-16T02:49:44.434Z,23.87
2018-02-16T02:52:11.897Z,23.43
2018-02-16T02:54:39.379Z,23.97
2018-02-16T02:57:06.850Z,24.27
2018-02-16T02:59:34.298Z,22.83
2018-02-16T03:02:01.778Z,24.23
2018-02-16T03:04:29.216Z,22.53
2018-02-16T03:06:56.694Z,25.00
2018-02-16T03:09:24.158Z,22.70
2018-02-16T03:11:51.659Z,23.20
2018-02-16T03:14:19.882Z,22.67
2018-02-16T03:16:47.342Z,25.17
2018-02-16T03:19:14.797Z,24.43
2018-02-16T03:21:42.242Z,23.87
2018-02-16T03:24:09.712Z,22.97
2018-02-16T03:26:37.160Z,24.03
2018-02-16T03:29:04.626Z,22.63
2018-02-16T03:31:32.083Z,24.00
2018-02-16T03:33:59.654Z,24.83
2018-02-16T03:36:27.088Z,25.17
2018-02-16T03:38:54.570Z,26.57
2018-02-16T03:41:22.015Z,24.20
2018-02-16T03:43:49.467Z,28.57
2018-02-16T03:46:16.934Z,26.77
2018-02-16T03:48:44.385Z,27.27
2018-02-16T03:51:11.882Z,28.83
2018-02-16T03:53:39.299Z,26.90
2018-02-16T03:56:06.759Z,24.10
2018-02-16T03:58:35.854Z,23.83
2018-02-16T04:01:03.311Z,25.47
2018-02-16T04:03:30.766Z,24.17
2018-02-16T04:05:58.224Z,27.30
2018-02-16T04:08:25.692Z,24.47
2018-02-16T04:10:53.150Z,25.47
2018-02-16T04:13:20.597Z,25.00
2018-02-16T04:15:48.062Z,24.20
2018-02-16T04:18:15.520Z,25.40
2018-02-16T04:20:43.071Z,21.70
2018-02-16T04:23:10.527Z,23.20
2018-02-16T04:25:37.971Z,22.20
2018-02-16T04:28:05.430Z,21.07
2018-02-16T04:30:32.898Z,21.63
2018-02-16T04:33:01.253Z,20.33
2018-02-16T04:35:28.713Z,21.80
2018-02-16T04:37:56.152Z,23.77
2018-02-16T04:40:23.627Z,24.33
2018-02-16T04:42:51.085Z,26.13
2018-02-16T04:45:18.541Z,26.33
2018-02-16T04:47:46.027Z,23.63
2018-02-16T04:50:13.477Z,24.37
2018-02-16T04:52:40.943Z,25.33
2018-02-16T04:55:08.402Z,24.23
2018-02-16T04:57:35.849Z,26.40
2018-02-16T05:00:03.301Z,27.87
2018-02-16T05:02:30.786Z,29.00
2018-02-16T05:04:58.227Z,27.40
2018-02-16T05:07:25.680Z,26.50
2018-02-16T05:09:53.114Z,24.60
2018-02-16T05:12:20.612Z,27.00
2018-02-16T05:14:48.062Z,25.50
2018-02-16T05:17:15.508Z,25.33
2018-02-16T05:19:42.966Z,24.60
2018-02-16T05:22:10.406Z,27.27
2018-02-16T05:24:37.878Z,25.20
2018-02-16T05:27:05.322Z,23.80
2018-02-16T05:29:32.792Z,26.13
2018-02-16T05:32:00.233Z,24.83
2018-02-16T05:34:27.707Z,24.83
2018-02-16T05:36:55.173Z,27.83
2018-02-16T05:39:22.650Z,27.57
2018-02-16T05:41:50.923Z,25.80
2018-02-16T05:44:18.384Z,27.37
2018-02-16T05:46:45.842Z,26.00
2018-02-16T05:49:13.276Z,27.67
2018-02-16T05:51:40.726Z,28.77
2018-02-16T05:54:08.200Z,26.43
2018-02-16T05:56:35.666Z,26.90
2018-02-16T05:59:03.114Z,26.60
2018-02-16T06:01:31.490Z,24.17
2018-02-16T06:03:58.931Z,25.33
2018-02-16T06:06:26.400Z,26.93
2018-02-16T06:08:53.847Z,24.60
2018-02-16T06:11:21.306Z,25.97
2018-02-16T06:13:48.757Z,27.20
2018-02-16T06:16:16.218Z,31.20
2018-02-16T06:18:43.739Z,28.53
2018-02-16T06:21:11.166Z,26.23
2018-02-16T06:23:39.409Z,28.53
2018-02-16T06:26:06.853Z,27.83
2018-02-16T06:28:34.323Z,26.97
2018-02-16T06:31:01.827Z,28.77
2018-02-16T06:33:29.222Z,28.40
2018-02-16T06:35:56.740Z,28.80
2018-02-16T06:38:24.203Z,29.83
2018-02-16T06:40:51.645Z,33.00
2018-02-16T06:43:19.874Z,30.60
2018-02-16T06:45:47.343Z,28.93
2018-02-16T06:48:14.803Z,35.73
2018-02-16T06:50:42.283Z,32.13
2018-02-16T06:53:10.485Z,31.57
2018-02-16T06:55:37.932Z,31.97
2018-02-16T06:58:05.398Z,32.83
2018-02-16T07:00:32.836Z,33.63
2018-02-16T07:03:01.059Z,34.30
2018-02-16T07:05:28.539Z,32.57
2018-02-16T07:07:56.022Z,38.20
2018-02-16T07:10:24.226Z,37.07
2018-02-16T07:12:51.678Z,34.10
2018-02-16T07:15:19.139Z,32.57
2018-02-16T07:17:46.575Z,31.27
2018-02-16T07:20:14.038Z,31.70
2018-02-16T07:22:41.513Z,30.23
2018-02-16T07:25:08.973Z,31.67
2018-02-16T07:27:36.418Z,29.40
2018-02-16T07:30:03.870Z,28.47
2018-02-16T07:32:31.306Z,29.30
2018-02-16T07:34:59.625Z,27.83
2018-02-16T07:37:27.066Z,27.80
2018-02-16T07:39:54.526Z,26.70
2018-02-16T07:42:21.986Z,25.67
2018-02-16T07:44:49.433Z,26.77
2018-02-16T07:47:16.866Z,25.93
2018-02-16T07:49:45.092Z,24.27
2018-02-16T07:52:12.530Z,24.87
2018-02-16T07:54:39.987Z,22.23
2018-02-16T07:57:07.437Z,24.87
2018-02-16T07:59:34.870Z,22.00
2018-02-16T08:02:02.331Z,24.83
2018-02-16T08:04:29.776Z,22.07
2018-02-16T08:06:57.977Z,22.47
2018-02-16T08:09:25.447Z,22.53
2018-02-16T08:11:52.890Z,22.53
2018-02-16T08:14:20.346Z,22.70
2018-02-16T08:16:47.787Z,22.50
2018-02-16T08:19:15.221Z,22.73
2018-02-16T08:21:43.442Z,22.67
2018-02-16T08:24:10.929Z,21.90
2018-02-16T08:26:38.362Z,21.43
2018-02-16T08:29:05.824Z,22.10
2018-02-16T08:31:33.286Z,24.00
2018-02-16T08:34:00.821Z,21.77
2018-02-16T08:36:28.277Z,21.47
2018-02-16T08:38:55.722Z,22.37
2018-02-16T08:41:23.194Z,20.83
2018-02-16T08:43:50.642Z,21.73
2018-02-16T08:46:18.082Z,20.53
2018-02-16T08:48:45.587Z,19.93
2018-02-16T08:51:13.022Z,20.07
2018-02-16T08:53:40.486Z,19.87
2018-02-16T08:56:07.928Z,18.93
2018-02-16T08:58:35.382Z,19.20
2018-02-16T09:01:02.818Z,18.90
2018-02-16T09:03:31.038Z,19.23
2018-02-16T09:05:58.482Z,18.83
2018-02-16T09:08:25.922Z,18.50
2018-02-16T09:10:53.397Z,16.17
2018-02-16T09:13:20.969Z,18.83
2018-02-16T09:15:48.386Z,16.60
2018-02-16T09:18:15.834Z,15.63
2018-02-16T09:20:44.059Z,16.13
2018-02-16T09:23:11.494Z,16.33
2018-02-16T09:25:38.934Z,16.03
2018-02-16T09:28:06.410Z,17.43
2018-02-16T09:30:33.863Z,16.07
2018-02-16T09:33:01.326Z,14.27
2018-02-16T09:35:32.967Z,14.67
2018-02-16T09:38:00.439Z,14.33
2018-02-16T09:40:28.098Z,15.33
2018-02-16T09:42:55.562Z,14.53
2018-02-16T09:45:23.007Z,15.27
2018-02-16T09:47:50.462Z,14.23
2018-02-16T09:50:17.931Z,14.70
2018-02-16T09:52:45.398Z,13.33
2018-02-16T09:55:12.851Z,14.80
2018-02-16T09:57:40.293Z,12.70
2018-02-16T10:00:07.758Z,13.27
2018-02-16T10:02:35.219Z,12.20
2018-02-16T10:05:02.677Z,12.87
2018-02-16T10:07:30.127Z,13.53
2018-02-16T10:09:57.658Z,12.40
2018-02-16T10:12:25.114Z,11.37
2018-02-16T10:14:52.550Z,13.77
2018-02-16T10:17:20.759Z,13.07
2018-02-16T10:19:48.216Z,13.30
2018-02-16T10:22:15.783Z,11.43
2018-02-16T10:24:43.265Z,12.37
2018-02-16T10:27:10.765Z,11.87
2018-02-16T10:29:38.997Z,11.17
2018-02-16T10:32:06.468Z,10.40
2018-02-16T10:34:33.906Z,11.20
2018-02-16T10:37:01.391Z,11.07
2018-02-16T10:39:28.834Z,10.60
2018-02-16T10:41:56.292Z,11.43
2018-02-16T10:44:23.722Z,10.50
2018-02-16T10:46:51.194Z,10.30
2018-02-16T10:49:18.639Z,10.20
2018-02-16T10:51:46.094Z,9.97
2018-02-16T10:54:13.530Z,10.43
2018-02-16T10:56:40.999Z,9.53
2018-02-16T10:59:08.470Z,10.83
2018-02-16T11:01:43.539Z,11.63
2018-02-16T11:04:16.611Z,10.00
2018-02-16T11:06:48.970Z,10.53
2018-02-16T11:09:20.347Z,9.73
2018-02-16T11:11:47.795Z,9.50
2018-02-16T11:14:15.230Z,9.63
2018-02-16T11:16:42.697Z,10.83
2018-02-16T11:19:10.130Z,10.70
2018-02-16T11:21:37.586Z,9.97
2018-02-16T11:24:05.059Z,11.70
2018-02-16T11:26:32.533Z,9.67
2018-02-16T11:28:59.987Z,9.57
2018-02-16T11:31:27.431Z,9.77
2018-02-16T11:33:54.895Z,9.63
2018-02-16T11:36:22.337Z,10.30
2018-02-16T11:38:49.802Z,10.70
2018-02-16T11:41:17.258Z,9.87
2018-02-16T11:43:44.714Z,9.40
2018-02-16T11:46:12.181Z,9.53
2018-02-16T11:48:39.634Z,10.17
2018-02-16T11:51:07.090Z,8.87
2018-02-16T11:53:34.559Z,9.07
2018-02-16T11:56:02.018Z,9.90
2018-02-16T11:58:29.479Z,10.03
2018-02-16T12:00:56.922Z,8.03
2018-02-16T12:03:24.392Z,8.10
2018-02-16T12:05:51.851Z,7.83
2018-02-16T12:08:19.310Z,7.73
2018-02-16T12:10:46.750Z,7.07
2018-02-16T12:13:14.208Z,7.93
2018-02-16T12:15:41.681Z,7.83
2018-02-16T12:18:09.114Z,6.83
2018-02-16T12:20:36.576Z,6.83
2018-02-16T12:23:04.031Z,6.57
2018-02-16T12:25:31.490Z,7.07
2018-02-16T12:27:58.950Z,7.40
2018-02-16T12:30:26.402Z,6.77
2018-02-16T12:32:53.862Z,7.47
2018-02-16T12:35:21.318Z,6.90
2018-02-16T12:37:48.782Z,6.13
2018-02-16T12:40:16.254Z,6.57
2018-02-16T12:42:43.702Z,6.63
2018-02-16T12:45:11.150Z,8.13
2018-02-16T12:47:38.620Z,7.40
2018-02-16T12:50:06.050Z,6.40
2018-02-16T12:52:33.522Z,6.47
2018-02-16T12:55:01.008Z,6.13
2018-02-16T12:57:28.435Z,6.63
2018-02-16T12:59:57.010Z,6.63
2018-02-16T13:02:24.526Z,6.93
2018-02-16T13:04:51.960Z,6.80
2018-02-16T13:07:19.610Z,6.27
2018-02-16T13:09:47.072Z,7.23
2018-02-16T13:12:14.530Z,6.93
2018-02-16T13:14:42.920Z,7.17
2018-02-16T13:17:11.126Z,7.40
2018-02-16T13:19:38.592Z,6.23
2018-02-16T13:22:06.022Z,6.93
2018-02-16T13:24:33.472Z,7.40
2018-02-16T13:27:01.720Z,6.83
2018-02-16T13:29:29.183Z,6.20
2018-02-16T13:31:56.626Z,7.10
2018-02-16T13:34:24.082Z,6.80
2018-02-16T13:36:51.574Z,5.77
2018-02-16T13:39:19.044Z,6.50
2018-02-16T13:41:47.263Z,6.53
2018-02-16T13:44:14.707Z,5.90
2018-02-16T13:46:42.190Z,6.13
2018-02-16T13:49:09.630Z,6.77
2018-02-16T13:51:37.098Z,6.97
2018-02-16T13:54:04.546Z,5.30
2018-02-16T13:56:32.020Z,6.40
2018-02-16T13:59:00.226Z,6.00
2018-02-16T14:01:27.663Z,6.03
2018-02-16T14:03:55.214Z,6.90
2018-02-16T14:06:22.662Z,5.93
2018-02-16T14:08:50.865Z,6.37
2018-02-16T14:11:18.318Z,5.67
2018-02-16T14:13:45.774Z,7.03
2018-02-16T14:16:13.214Z,5.60
2018-02-16T14:18:40.666Z,6.70
2018-02-16T14:21:08.148Z,6.30
2018-02-16T14:23:35.598Z,5.97
2018-02-16T14:26:03.074Z,6.63
2018-02-16T14:28:30.495Z,5.57
2018-02-16T14:30:57.962Z,5.70
2018-02-16T14:33:25.402Z,4.93
2018-02-16T14:35:52.885Z,5.23
2018-02-16T14:38:20.355Z,5.27
2018-02-16T14:40:47.786Z,5.63
2018-02-16T14:43:15.242Z,5.20
2018-02-16T14:45:42.698Z,5.40
2018-02-16T14:48:10.203Z,4.93
2018-02-16T14:50:37.610Z,4.37
2018-02-16T14:53:05.070Z,6.60
2018-02-16T14:55:33.301Z,4.60
2018-02-16T14:58:00.773Z,5.20
2018-02-16T15:00:28.228Z,4.80
2018-02-16T15:02:55.662Z,5.10
2018-02-16T15:05:23.123Z,5.43
2018-02-16T15:07:50.574Z,4.40
2018-02-16T15:10:18.060Z,4.57
2018-02-16T15:12:45.485Z,4.63
2018-02-16T15:15:12.931Z,4.67
2018-02-16T15:17:41.189Z,4.73
2018-02-16T15:20:08.604Z,4.77
2018-02-16T15:22:36.067Z,4.27
2018-02-16T15:25:03.537Z,4.67
2018-02-16T15:27:30.992Z,4.43
2018-02-16T15:29:58.451Z,5.83
2018-02-16T15:32:25.894Z,5.00
2018-02-16T15:34:53.344Z,5.03
2018-02-16T15:37:20.803Z,5.10
2018-02-16T15:39:48.299Z,4.90
2018-02-16T15:42:15.722Z,3.83
2018-02-16T15:44:43.175Z,3.97
2018-02-16T15:47:10.631Z,4.37
2018-02-16T15:49:38.092Z,4.63
2018-02-16T15:52:05.562Z,4.33
2018-02-16T15:54:33.018Z,4.67
2018-02-16T15:57:00.485Z,4.37
2018-02-16T15:59:27.930Z,5.10
2018-02-16T16:01:55.378Z,4.77
2018-02-16T16:04:22.843Z,4.73
2018-02-16T16:06:50.291Z,5.20
2018-02-16T16:09:17.759Z,4.50
2018-02-16T16:11:45.215Z,4.47
2018-02-16T16:14:12.681Z,4.67
2018-02-16T16:16:40.153Z,5.40
2018-02-16T16:19:07.622Z,4.97
2018-02-16T16:21:35.054Z,4.87
2018-02-16T16:24:02.526Z,4.70
2018-02-16T16:26:29.971Z,4.83
2018-02-16T16:28:57.406Z,4.70
2018-02-16T16:31:24.862Z,4.90
2018-02-16T16:33:52.310Z,4.93
2018-02-16T16:36:19.773Z,4.70
2018-02-16T16:38:47.198Z,4.87
2018-02-16T16:41:14.647Z,5.13
2018-02-16T16:43:42.088Z,4.80
2018-02-16T16:46:09.542Z,5.37
2018-02-16T16:48:36.993Z,4.87
2018-02-16T16:51:04.446Z,5.33
2018-02-16T16:53:31.891Z,4.40
2018-02-16T16:55:59.345Z,5.50
2018-02-16T16:58:26.810Z,4.50
2018-02-16T17:00:55.021Z,4.73
2018-02-16T17:03:22.472Z,5.33
2018-02-16T17:05:49.935Z,4.47
2018-02-16T17:08:17.395Z,5.43
2018-02-16T17:10:44.826Z,5.40
2018-02-16T17:13:13.070Z,4.60
2018-02-16T17:15:40.528Z,5.43
2018-02-16T17:18:07.996Z,5.13
2018-02-16T17:20:35.450Z,4.90
2018-02-16T17:23:02.934Z,4.30
2018-02-16T17:25:31.134Z,5.07
2018-02-16T17:27:58.592Z,4.97
2018-02-16T17:30:26.023Z,4.80
2018-02-16T17:32:54.266Z,5.67
2018-02-16T17:35:21.720Z,4.70
2018-02-16T17:37:49.166Z,5.07
2018-02-16T17:40:16.637Z,4.93
2018-02-16T17:42:44.079Z,5.67
2018-02-16T17:45:11.538Z,4.97
2018-02-16T17:47:39.010Z,5.33
2018-02-16T17:50:06.475Z,4.70
2018-02-16T17:52:33.928Z,5.23
2018-02-16T17:55:01.379Z,5.60
2018-02-16T17:57:28.879Z,6.10
2018-02-16T17:59:57.293Z,6.30
2018-02-16T18:02:24.710Z,5.03
2018-02-16T18:04:52.171Z,5.57
2018-02-16T18:07:19.674Z,6.03
2018-02-16T18:09:47.133Z,5.10
2018-02-16T18:12:14.642Z,6.63
2018-02-16T18:14:42.837Z,6.13
2018-02-16T18:17:10.306Z,5.73
2018-02-16T18:19:37.782Z,6.57
2018-02-16T18:22:05.232Z,5.43
2018-02-16T18:24:32.723Z,5.00
2018-02-16T18:27:00.167Z,5.63
2018-02-16T18:29:27.634Z,5.23
2018-02-16T18:31:55.096Z,5.63
2018-02-16T18:34:22.578Z,5.97
2018-02-16T18:36:50.038Z,6.27
2018-02-16T18:39:17.476Z,5.33
2018-02-16T18:41:44.934Z,5.40
2018-02-16T18:44:12.399Z,5.67
2018-02-16T18:46:39.837Z,5.57
2018-02-16T18:49:07.293Z,4.73
2018-02-16T18:51:34.741Z,5.53
2018-02-16T18:54:02.222Z,5.73
2018-02-16T18:56:29.663Z,6.17
2018-02-16T18:58:57.129Z,7.70
2018-02-16T19:01:24.570Z,5.57
2018-02-16T19:03:52.080Z,5.83
2018-02-16T19:06:20.322Z,5.87
2018-02-16T19:08:47.782Z,5.13
2018-02-16T19:11:15.226Z,5.50
2018-02-16T19:13:43.453Z,5.23
2018-02-16T19:16:10.902Z,5.93
2018-02-16T19:18:38.347Z,6.07
2018-02-16T19:21:05.802Z,6.20
2018-02-16T19:23:33.254Z,5.70
2018-02-16T19:26:00.736Z,6.00
2018-02-16T19:28:28.222Z,6.37
2018-02-16T19:30:55.658Z,6.03
2018-02-16T19:33:23.099Z,6.13
2018-02-16T19:35:51.344Z,6.57
2018-02-16T19:38:19.542Z,6.40
2018-02-16T19:40:47.003Z,5.63
2018-02-16T19:43:14.448Z,5.80
2018-02-16T19:45:42.746Z,5.40
2018-02-16T19:48:10.194Z,6.07
2018-02-16T19:50:38.427Z,5.43
2018-02-16T19:53:05.910Z,5.53
2018-02-16T19:55:33.375Z,6.03
2018-02-16T19:58:00.821Z,6.27
2018-02-16T20:00:28.278Z,5.47
2018-02-16T20:02:55.766Z,5.90
2018-02-16T20:05:23.208Z,5.77
2018-02-16T20:07:51.433Z,6.23
2018-02-16T20:10:18.905Z,5.97
2018-02-16T20:12:46.361Z,6.07
2018-02-16T20:15:14.591Z,6.00
2018-02-16T20:17:42.018Z,6.00
2018-02-16T20:20:09.450Z,5.30
2018-02-16T20:22:36.918Z,5.47
2018-02-16T20:25:04.364Z,6.27
2018-02-16T20:27:31.799Z,6.13
2018-02-16T20:29:59.262Z,6.03
2018-02-16T20:32:26.722Z,6.07
2018-02-16T20:34:54.269Z,5.50
2018-02-16T20:37:21.773Z,5.93
2018-02-16T20:39:49.242Z,5.80
2018-02-16T20:42:16.674Z,6.07
2018-02-16T20:44:44.116Z,6.07
2018-02-16T20:47:11.605Z,5.53
2018-02-16T20:49:39.054Z,6.10
2018-02-16T20:52:06.493Z,5.90
2018-02-16T20:54:33.955Z,5.83
2018-02-16T20:57:01.422Z,6.47
2018-02-16T20:59:28.869Z,6.43
2018-02-16T21:01:56.344Z,6.43
2018-02-16T21:04:23.783Z,5.30
2018-02-16T21:06:51.227Z,5.90
2018-02-16T21:09:18.714Z,5.50
2018-02-16T21:11:46.158Z,5.53
2018-02-16T21:14:13.647Z,5.23
2018-02-16T21:16:41.130Z,5.57
2018-02-16T21:19:08.567Z,5.07
2018-02-16T21:21:36.022Z,5.90
2018-02-16T21:24:03.479Z,5.53
2018-02-16T21:26:30.942Z,5.87
2018-02-16T21:28:58.366Z,6.20
2018-02-16T21:31:25.834Z,5.73
2018-02-16T21:33:53.294Z,5.93
2018-02-16T21:36:20.783Z,6.77
2018-02-16T21:38:48.224Z,6.77
2018-02-16T21:41:15.680Z,7.67
2018-02-16T21:43:43.143Z,7.00
2018-02-16T21:46:10.574Z,6.30
2018-02-16T21:48:38.809Z,6.60
2018-02-16T21:51:06.266Z,6.57
2018-02-16T21:53:33.743Z,6.03
2018-02-16T21:56:01.165Z,6.33
2018-02-16T21:58:28.636Z,6.30
2018-02-16T22:00:56.112Z,5.87
2018-02-16T22:03:23.526Z,6.23
2018-02-16T22:05:50.990Z,6.37
2018-02-16T22:08:18.423Z,7.53
2018-02-16T22:10:45.862Z,5.57
2018-02-16T22:13:14.085Z,5.67
2018-02-16T22:15:41.542Z,5.83
2018-02-16T22:18:08.985Z,6.67
2018-02-16T22:20:36.464Z,6.07
2018-02-16T22:23:04.678Z,6.70
2018-02-16T22:25:32.127Z,5.70
2018-02-16T22:27:59.594Z,7.03
2018-02-16T22:30:27.054Z,6.07
2018-02-16T22:32:54.501Z,6.33
2018-02-16T22:35:22.723Z,6.63
2018-02-16T22:37:50.149Z,8.70
2018-02-16T22:40:17.611Z,7.13
2018-02-16T22:42:45.045Z,6.27
2018-02-16T22:45:13.270Z,7.00
2018-02-16T22:47:40.714Z,7.10
2018-02-16T22:50:08.174Z,6.27
2018-02-16T22:52:35.628Z,7.67
2018-02-16T22:55:03.090Z,6.90
2018-02-16T22:57:30.606Z,6.77
2018-02-16T22:59:58.036Z,7.27
2018-02-16T23:02:25.488Z,7.20
2018-02-16T23:04:52.914Z,7.30
2018-02-16T23:07:20.369Z,6.67
2018-02-16T23:09:47.863Z,7.43
2018-02-16T23:12:15.303Z,6.50
2018-02-16T23:14:42.753Z,6.93
2018-02-16T23:17:10.206Z,7.03
2018-02-16T23:19:37.659Z,7.30
2018-02-16T23:22:05.115Z,7.10
2018-02-16T23:24:32.658Z,7.00
2018-02-16T23:27:00.083Z,8.33
2018-02-16T23:29:28.302Z,6.77
2018-02-16T23:31:55.763Z,7.53
2018-02-16T23:34:23.196Z,7.60
2018-02-16T23:36:50.653Z,6.90
2018-02-16T23:39:18.133Z,8.13
2018-02-16T23:41:45.581Z,7.70
2018-02-16T23:44:12.987Z,6.80
2018-02-16T23:46:40.451Z,8.00
2018-02-16T23:49:07.911Z,6.73
2018-02-16T23:51:35.348Z,8.10
2018-02-16T23:54:02.803Z,7.47
2018-02-16T23:56:30.273Z,8.23
2018-02-16T23:58:57.710Z,7.93
